Time;durP1;ratioP1;P1;durP2;ratioP2;P2;SDS_P1;SDS_P2;PMS_P1;PMS_P2;Temp;Humidity;BMP_temperature;BMP_pressure;BME280_temperature;BME280_humidity;BME280_pressure;Samples;Min_cycle;Max_cycle;Signal;HPM_P1;HPM_P2
2024/01/08 00:02:15;;;;;;;;;;;;;;;-144.99;91.46;52668.22;5013964;28;20059;-68
2024/01/08 00:04:42;;;;;;;;;;;;;;;-144.99;91.47;52723.28;5035504;28;20366;-67
2024/01/08 00:07:08;;;;;;;;;;;;;;;-144.99;91.61;52692.69;5020689;28;19961;-67
2024/01/08 00:09:35;;;;;;;;;;;;;;;-144.99;91.63;52668.22;5017049;28;19925;-67
2024/01/08 00:12:01;;;;;;;;;;;;;;;-144.99;91.67;52676.38;5018919;28;20010;-66
2024/01/08 00:14:28;;;;;;;;;;;;;;;-144.99;91.66;52684.53;5021164;28;19933;-67
2024/01/08 00:16:54;;;;;;;;;;;;;;;-144.99;91.82;52670.28;5019046;28;20302;-67
2024/01/08 00:19:22;;;;;;;;;;;;;;;-144.99;91.62;52709.00;5024933;28;19944;-68
2024/01/08 00:21:48;;;;;;;;;;;;;;;-144.99;91.73;52651.94;5024841;28;20039;-67
2024/01/08 00:24:15;;;;;;;;;;;;;;;-144.99;91.71;52676.38;5024072;28;20124;-67
2024/01/08 00:26:41;;;;;;;;;;;;;;;-144.99;91.54;52676.38;5025114;28;19998;-67
2024/01/08 00:29:08;;;;;;;;;;;;;;;-144.99;91.54;52668.22;5029042;28;19939;-68
2024/01/08 00:31:34;;;;;;;;;;;;;;;-144.99;91.45;52688.63;5023198;28;19937;-68
2024/01/08 00:34:01;;;;;;;;;;;;;;;-144.99;91.33;52692.69;5026951;28;20040;-69
2024/01/08 00:36:29;;;;;;;;;;;;;;;-144.99;91.54;52668.22;5025924;28;20361;-67
2024/01/08 00:38:55;;;;;;;;;;;;;;;-144.99;91.46;52674.34;5022407;28;20036;-67
2024/01/08 00:41:21;;;;;;;;;;;;;;;-144.99;91.28;52651.94;5018049;28;20363;-67
2024/01/08 00:43:51;;;;;;;;;;;;;;;-144.99;91.32;52680.47;5022965;28;19929;-69
2024/01/08 00:46:17;;;;;;;;;;;;;;;-144.99;91.36;52682.50;5025411;28;19936;-69
2024/01/08 00:48:44;;;;;;;;;;;;;;;-144.99;91.19;52647.84;5023386;28;20025;-69
2024/01/08 00:51:10;;;;;;;;;;;;;;;-144.99;91.27;52680.47;5024158;28;20023;-71
2024/01/08 00:53:38;;;;;;;;;;;;;;;-144.99;91.33;52643.78;5020629;28;20067;-71
2024/01/08 00:56:05;;;;;;;;;;;;;;;-144.99;91.21;52658.03;5024329;28;19976;-74
2024/01/08 00:58:31;;;;;;;;;;;;;;;-144.99;91.19;52688.63;5025285;28;19929;-72
2024/01/08 01:00:58;;;;;;;;;;;;;;;-144.99;91.23;52664.16;5022763;28;19929;-71
2024/01/08 01:03:25;;;;;;;;;;;;;;;-144.99;91.16;52647.84;5018982;28;19940;-72
2024/01/08 01:05:51;;;;;;;;;;;;;;;-144.99;91.42;52688.63;5024266;28;19929;-72
2024/01/08 01:08:18;;;;;;;;;;;;;;;-144.99;91.31;52668.22;5019159;28;19925;-72
2024/01/08 01:10:45;;;;;;;;;;;;;;;-144.99;91.23;52684.53;5023373;28;20024;-71
2024/01/08 01:13:12;;;;;;;;;;;;;;;-144.99;91.26;52641.72;5017965;28;19936;-72
2024/01/08 01:15:38;;;;;;;;;;;;;;;-144.99;91.69;52660.09;5023115;28;19926;-70
2024/01/08 01:18:05;;;;;;;;;;;;;;;-144.99;91.42;52696.78;5021861;28;19992;-71
2024/01/08 01:20:32;;;;;;;;;;;;;;;-144.99;91.50;52698.81;5018628;28;20024;-69
2024/01/08 01:22:58;;;;;;;;;;;;;;;-144.99;91.26;52672.31;5022063;28;19936;-72
2024/01/08 01:25:25;;;;;;;;;;;;;;;-144.99;91.37;52647.84;5019556;28;20066;-69
2024/01/08 01:27:52;;;;;;;;;;;;;;;-144.99;91.37;52660.09;5020476;28;19929;-70
2024/01/08 01:30:19;;;;;;;;;;;;;;;-144.99;91.47;52676.38;5020780;28;20007;-70
2024/01/08 01:32:45;;;;;;;;;;;;;;;-144.99;91.64;52639.69;5023167;28;19968;-70
2024/01/08 01:35:12;;;;;;;;;;;;;;;-144.99;91.68;52709.00;5015211;28;19930;-72
2024/01/08 01:37:41;;;;;;;;;;;;;;;-144.99;91.74;52696.78;5018620;28;20351;-72
2024/01/08 01:40:09;;;;;;;;;;;;;;;-144.99;91.73;52658.03;5024227;28;19935;-74
2024/01/08 01:42:35;;;;;;;;;;;;;;;-144.99;91.79;52660.09;5017619;28;19955;-74
2024/01/08 01:45:04;;;;;;;;;;;;;;;-144.99;92.05;52635.63;5018787;28;20003;-72
2024/01/08 01:47:32;;;;;;;;;;;;;;;-144.99;91.78;52674.34;5036426;28;19995;-74
2024/01/08 01:49:58;;;;;;;;;;;;;;;-144.99;91.93;52664.16;5040799;28;19954;-73
2024/01/08 01:52:25;;;;;;;;;;;;;;;-144.99;91.84;52680.47;5028703;28;20075;-73
2024/01/08 01:54:52;;;;;;;;;;;;;;;-144.99;92.20;52670.28;5035691;28;19983;-73
2024/01/08 01:57:19;;;;;;;;;;;;;;;-144.99;92.12;52651.94;5012803;28;19929;-73
2024/01/08 01:59:46;;;;;;;;;;;;;;;-144.99;92.07;52656.00;5020541;28;19979;-73
2024/01/08 02:02:14;;;;;;;;;;;;;;;-144.99;92.12;52700.84;5017139;28;20306;-73
2024/01/08 02:04:41;;;;;;;;;;;;;;;-144.99;92.22;52688.63;5018551;28;20025;-63
2024/01/08 02:07:08;;;;;;;;;;;;;;;-144.99;92.30;52680.47;5024909;28;20032;-63
2024/01/08 02:09:35;;;;;;;;;;;;;;;-144.99;92.10;52662.13;5024905;28;20032;-61
2024/01/08 02:12:02;;;;;;;;;;;;;;;-144.99;92.49;52631.53;5018843;28;19929;-64
2024/01/08 02:14:28;;;;;;;;;;;;;;;-144.99;92.45;52631.53;5028293;28;19930;-63
2024/01/08 02:16:54;;;;;;;;;;;;;;;-144.99;92.34;52647.84;5018030;28;21503;-62
2024/01/08 02:19:22;;;;;;;;;;;;;;;-144.99;92.36;52607.09;5033851;28;19929;-64
2024/01/08 02:21:49;;;;;;;;;;;;;;;-144.99;92.49;52696.78;5026615;28;20394;-62
2024/01/08 02:24:20;;;;;;;;;;;;;;;-144.99;92.61;52639.69;5027596;28;19936;-61
2024/01/08 02:26:47;;;;;;;;;;;;;;;-144.99;93.01;52647.84;5028947;28;20018;-64
2024/01/08 02:29:13;;;;;;;;;;;;;;;-144.99;93.04;52662.13;5025573;28;19929;-63
2024/01/08 02:31:40;;;;;;;;;;;;;;;-144.99;92.87;52637.66;5026580;28;20010;-63
2024/01/08 02:34:07;;;;;;;;;;;;;;;-144.99;92.92;52676.38;5026095;28;20008;-63
2024/01/08 02:36:33;;;;;;;;;;;;;;;-144.99;92.91;52649.88;5029092;28;20270;-64
2024/01/08 02:39:00;;;;;;;;;;;;;;;-144.99;93.10;52686.59;5024012;28;20024;-73
2024/01/08 02:41:28;;;;;;;;;;;;;;;-144.99;92.74;52647.84;5025092;28;19968;-74
2024/01/08 02:43:54;;;;;;;;;;;;;;;-144.99;92.94;52656.00;4677190;28;9999830;-74
2024/01/08 02:46:21;;;;;;;;;;;;;;;-144.99;93.07;52645.81;5017148;28;20377;-76
2024/01/08 02:48:47;;;;;;;;;;;;;;;-144.99;93.06;52635.63;5020350;28;19975;-72
2024/01/08 02:51:15;;;;;;;;;;;;;;;-144.99;93.32;52692.69;5024486;28;19925;-73
2024/01/08 02:53:41;;;;;;;;;;;;;;;-144.99;93.03;52619.31;5027303;28;19929;-73
2024/01/08 02:56:08;;;;;;;;;;;;;;;-144.99;92.99;52651.94;5028452;28;20540;-71
2024/01/08 02:58:35;;;;;;;;;;;;;;;-144.99;93.13;52623.38;5025089;28;19935;-73
2024/01/08 03:01:02;;;;;;;;;;;;;;;-144.99;93.05;52631.53;5029607;28;19968;-72
2024/01/08 03:03:29;;;;;;;;;;;;;;;-144.99;93.06;52688.63;5022888;28;19933;-72
2024/01/08 03:05:55;;;;;;;;;;;;;;;-144.99;93.22;52647.84;5030332;28;19969;-72
2024/01/08 03:08:22;;;;;;;;;;;;;;;-144.99;93.21;52676.38;5036586;28;19926;-73
2024/01/08 03:10:48;;;;;;;;;;;;;;;-144.99;93.26;52674.34;5046504;28;19956;-74
2024/01/08 03:13:15;;;;;;;;;;;;;;;-144.99;93.38;52647.84;5033495;28;19925;-72
2024/01/08 03:15:43;;;;;;;;;;;;;;;-144.99;93.29;52660.09;5024132;28;20427;-73
2024/01/08 03:18:09;;;;;;;;;;;;;;;-144.99;93.27;52666.19;5033889;28;20021;-69
2024/01/08 03:20:35;;;;;;;;;;;;;;;-144.99;93.38;52656.00;5029103;28;20437;-68
2024/01/08 03:23:02;;;;;;;;;;;;;;;-144.99;93.43;52664.16;5028388;28;19929;-70
2024/01/08 03:25:28;;;;;;;;;;;;;;;-144.99;93.38;52658.03;5020801;28;20379;-69
2024/01/08 03:27:55;;;;;;;;;;;;;;;-144.99;93.44;52656.00;5027278;28;19930;-67
2024/01/08 03:30:21;;;;;;;;;;;;;;;-144.99;93.41;52668.22;5027599;28;19960;-68
2024/01/08 03:32:49;;;;;;;;;;;;;;;-144.99;93.68;52651.94;5028517;28;20003;-67
2024/01/08 03:35:18;;;;;;;;;;;;;;;-144.99;93.64;52639.69;5030266;28;19969;-67
2024/01/08 03:37:44;;;;;;;;;;;;;;;-144.99;93.82;52672.31;5020348;28;19926;-67
2024/01/08 03:40:11;;;;;;;;;;;;;;;-144.99;93.70;52639.69;5022240;28;20218;-68
2024/01/08 03:42:38;;;;;;;;;;;;;;;-144.99;93.66;52635.63;5024869;28;19925;-68
2024/01/08 03:45:05;;;;;;;;;;;;;;;-144.99;93.66;52676.38;5025922;28;20430;-67
2024/01/08 03:47:31;;;;;;;;;;;;;;;-144.99;93.85;52664.16;5022813;28;20355;-67
2024/01/08 03:49:59;;;;;;;;;;;;;;;-144.99;93.73;52643.78;5022338;28;20035;-67
2024/01/08 03:52:26;;;;;;;;;;;;;;;-144.99;94.00;52635.63;5039603;28;19929;-67
2024/01/08 03:54:52;;;;;;;;;;;;;;;-144.99;94.01;52651.94;5030072;28;20399;-67
2024/01/08 03:57:19;;;;;;;;;;;;;;;-144.99;93.96;52656.00;5021149;28;19925;-67
2024/01/08 03:59:46;;;;;;;;;;;;;;;-144.99;93.92;52627.47;5021969;28;20021;-66
2024/01/08 04:02:13;;;;;;;;;;;;;;;-144.99;93.89;52639.69;5021323;28;19926;-67
2024/01/08 04:04:40;;;;;;;;;;;;;;;-144.99;94.16;52680.47;5028658;28;20382;-68
2024/01/08 04:07:08;;;;;;;;;;;;;;;-144.99;94.03;52627.47;5022822;28;19925;-67
2024/01/08 04:09:35;;;;;;;;;;;;;;;-144.99;94.11;52631.53;5022097;28;19925;-68
2024/01/08 04:12:04;;;;;;;;;;;;;;;-144.99;94.28;52662.13;5026804;28;19975;-68
2024/01/08 04:14:30;;;;;;;;;;;;;;;-144.99;94.36;52619.31;5026748;28;19947;-67
2024/01/08 04:16:57;;;;;;;;;;;;;;;-144.99;94.26;52660.09;5022817;28;19940;-68
2024/01/08 04:19:23;;;;;;;;;;;;;;;-144.99;94.11;52653.97;5020981;28;20387;-68
2024/01/08 04:21:50;;;;;;;;;;;;;;;-144.99;94.17;52615.25;5027225;28;19976;-68
2024/01/08 04:24:18;;;;;;;;;;;;;;;-144.99;94.29;52668.22;5024350;28;20420;-68
2024/01/08 04:26:44;;;;;;;;;;;;;;;-144.99;94.53;52643.78;5018082;28;20346;-68
2024/01/08 04:29:11;;;;;;;;;;;;;;;-144.99;94.38;52676.38;5022415;28;19925;-68
2024/01/08 04:31:37;;;;;;;;;;;;;;;-144.99;94.49;52696.78;5030721;28;19925;-68
2024/01/08 04:34:04;;;;;;;;;;;;;;;-144.99;94.51;52635.63;5046292;28;19936;-71
2024/01/08 04:36:31;;;;;;;;;;;;;;;-144.99;94.78;52611.16;5037454;28;19979;-71
2024/01/08 04:38:57;;;;;;;;;;;;;;;-144.99;94.89;52651.94;5017118;28;20418;-67
2024/01/08 04:41:25;;;;;;;;;;;;;;;-144.99;95.06;52635.63;5026325;28;20309;-72
2024/01/08 04:43:51;;;;;;;;;;;;;;;-144.99;94.88;52668.22;5026512;28;20022;-70
2024/01/08 04:46:18;;;;;;;;;;;;;;;-144.99;94.78;52633.59;5031421;28;20219;-69
2024/01/08 04:48:44;;;;;;;;;;;;;;;-144.99;95.03;52656.00;5030729;28;20318;-70
2024/01/08 04:51:20;;;;;;;;;;;;;;;-144.99;95.08;52692.69;5029138;28;19976;-70
2024/01/08 04:53:47;;;;;;;;;;;;;;;-144.99;94.86;52645.81;5026258;28;20019;-69
2024/01/08 04:56:19;;;;;;;;;;;;;;;-144.99;94.87;52668.22;5027136;28;20332;-70
2024/01/08 04:58:47;;;;;;;;;;;;;;;-144.99;94.85;52615.25;5025928;28;19925;-70
2024/01/08 05:01:14;;;;;;;;;;;;;;;-144.99;95.09;52639.69;5028545;28;19925;-69
2024/01/08 05:03:42;;;;;;;;;;;;;;;-144.99;95.02;52666.19;5028429;28;19925;-72
2024/01/08 05:06:10;;;;;;;;;;;;;;;-144.99;94.91;52700.84;5025560;28;20359;-68
2024/01/08 05:08:38;;;;;;;;;;;;;;;-144.99;94.81;52611.16;5026629;28;19929;-69
2024/01/08 05:11:04;;;;;;;;;;;;;;;-144.99;95.46;52635.63;5027620;28;19931;-69
2024/01/08 05:13:31;;;;;;;;;;;;;;;-144.99;95.02;52643.78;5032594;28;19967;-74
2024/01/08 05:15:59;;;;;;;;;;;;;;;-144.99;95.06;52684.53;5049391;28;19949;-74
2024/01/08 05:18:25;;;;;;;;;;;;;;;-144.99;94.83;52635.63;5040472;28;20428;-71
2024/01/08 05:20:52;;;;;;;;;;;;;;;-144.99;94.54;52656.00;5029683;28;20040;-71
2024/01/08 05:23:18;;;;;;;;;;;;;;;-144.99;94.62;52643.78;5032881;28;20044;-69
2024/01/08 05:25:45;;;;;;;;;;;;;;;-144.99;94.76;52647.84;5034383;28;20334;-69
2024/01/08 05:28:11;;;;;;;;;;;;;;;-144.99;94.66;52684.53;5026879;28;20372;-71
2024/01/08 05:30:38;;;;;;;;;;;;;;;-144.99;97.37;52692.69;5033361;28;19926;-72
2024/01/08 05:33:06;;;;;;;;;;;;;;;-144.99;95.67;52651.94;5023724;28;19979;-71
2024/01/08 05:35:33;;;;;;;;;;;;;;;-144.99;96.85;52619.31;5030086;28;19979;-70
2024/01/08 05:38:01;;;;;;;;;;;;;;;-144.99;96.70;52631.53;5024222;28;19937;-72
2024/01/08 05:40:28;;;;;;;;;;;;;;;-144.99;96.63;52639.69;5033952;28;19968;-73
2024/01/08 05:42:54;;;;;;;;;;;;;;;-144.99;95.96;52625.44;5028986;28;20239;-73
2024/01/08 05:45:21;;;;;;;;;;;;;;;-144.99;95.65;52623.38;5021220;28;20032;-73
2024/01/08 05:47:48;;;;;;;;;;;;;;;-144.99;95.41;52643.78;5027762;28;19975;-71
2024/01/08 05:50:16;;;;;;;;;;;;;;;-144.99;95.02;52635.63;5029466;28;19933;-71
2024/01/08 05:52:43;;;;;;;;;;;;;;;-144.99;95.20;52611.16;5030556;28;19925;-72
2024/01/08 05:55:13;;;;;;;;;;;;;;;-144.99;94.69;52656.00;5029812;28;20008;-73
2024/01/08 05:57:40;;;;;;;;;;;;;;;-144.99;94.20;52651.94;5048056;28;19929;-68
2024/01/08 06:00:07;;;;;;;;;;;;;;;-144.99;93.63;52639.69;5041504;28;20303;-71
2024/01/08 06:02:33;;;;;;;;;;;;;;;-144.99;93.50;52680.47;5029678;28;20438;-72
2024/01/08 06:05:00;;;;;;;;;;;;;;;-144.99;93.52;52660.09;5036838;28;20290;-73
2024/01/08 06:07:27;;;;;;;;;;;;;;;-144.99;93.01;52639.69;5033410;28;19925;-74
2024/01/08 06:09:54;;;;;;;;;;;;;;;-144.99;93.07;52643.78;5017829;28;20470;-75
2024/01/08 06:12:20;;;;;;;;;;;;;;;-144.99;93.05;52582.63;5031081;28;19937;-73
2024/01/08 06:14:48;;;;;;;;;;;;;;;-144.99;92.56;52660.09;5028309;28;19979;-68
2024/01/08 06:17:15;;;;;;;;;;;;;;;-144.99;92.44;52598.94;4683003;28;10000336;-71
2024/01/08 06:19:41;;;;;;;;;;;;;;;-144.99;92.20;52631.53;5027958;28;20027;-70
2024/01/08 06:22:08;;;;;;;;;;;;;;;-144.99;92.08;52660.09;5018929;28;19998;-70
2024/01/08 06:24:36;;;;;;;;;;;;;;;-144.99;92.04;52619.31;5023725;28;19926;-68
2024/01/08 06:27:02;;;;;;;;;;;;;;;-144.99;92.19;52643.78;5027403;28;20168;-70
2024/01/08 06:29:29;;;;;;;;;;;;;;;-144.99;92.05;52631.53;5026561;28;19929;-70
2024/01/08 06:31:55;;;;;;;;;;;;;;;-144.99;91.64;52676.38;5025891;28;19999;-70
2024/01/08 06:34:22;;;;;;;;;;;;;;;-144.99;91.49;52623.38;5028241;28;19987;-70
2024/01/08 06:36:48;;;;;;;;;;;;;;;-144.99;91.40;52631.53;5029809;28;20035;-68
2024/01/08 06:39:15;;;;;;;;;;;;;;;-144.99;91.22;52635.63;5038737;28;20431;-70
2024/01/08 06:41:42;;;;;;;;;;;;;;;-144.99;91.33;52635.63;5032216;28;20399;-70
2024/01/08 06:44:09;;;;;;;;;;;;;;;-144.99;91.37;52635.63;5027710;28;19933;-69
2024/01/08 06:46:35;;;;;;;;;;;;;;;-144.99;91.56;52658.03;5025293;28;19932;-70
2024/01/08 06:49:02;;;;;;;;;;;;;;;-144.99;91.51;52647.84;5026786;28;19933;-70
2024/01/08 06:51:29;;;;;;;;;;;;;;;-144.99;91.38;52627.47;5027478;28;20309;-68
2024/01/08 06:53:56;;;;;;;;;;;;;;;-144.99;91.39;52635.63;5027656;28;20444;-68
2024/01/08 06:56:22;;;;;;;;;;;;;;;-144.99;91.50;52660.09;5028556;28;20020;-69
2024/01/08 06:58:50;;;;;;;;;;;;;;;-144.99;91.26;52664.16;5027232;28;20056;-69
2024/01/08 07:01:17;;;;;;;;;;;;;;;-144.99;91.30;52607.09;5023528;28;20035;-70
2024/01/08 07:03:44;;;;;;;;;;;;;;;-144.99;91.21;52656.00;5027854;28;20075;-70
2024/01/08 07:06:11;;;;;;;;;;;;;;;-144.99;91.06;52623.38;5027893;28;20040;-68
2024/01/08 07:08:37;;;;;;;;;;;;;;;-144.99;90.90;52619.31;5027608;28;19973;-69
2024/01/08 07:11:04;;;;;;;;;;;;;;;-144.99;91.02;52623.38;5023795;28;20018;-69
2024/01/08 07:13:30;;;;;;;;;;;;;;;-144.99;91.14;52647.84;5029520;28;20645;-70
2024/01/08 07:15:58;;;;;;;;;;;;;;;-144.99;91.16;52621.34;5033335;28;20060;-69
2024/01/08 07:18:24;;;;;;;;;;;;;;;-144.99;91.03;52605.03;5035650;28;20249;-70
2024/01/08 07:20:51;;;;;;;;;;;;;;;-144.99;91.12;52615.25;5036079;28;19929;-70
2024/01/08 07:23:17;;;;;;;;;;;;;;;-144.99;91.65;52660.09;5029842;28;20463;-69
2024/01/08 07:25:44;;;;;;;;;;;;;;;-144.99;91.86;52641.72;5025265;28;20425;-69
2024/01/08 07:28:11;;;;;;;;;;;;;;;-144.99;91.84;52643.78;5027551;28;20087;-68
2024/01/08 07:30:38;;;;;;;;;;;;;;;-144.99;91.93;52656.00;5027628;28;19967;-69
2024/01/08 07:33:06;;;;;;;;;;;;;;;-144.99;92.28;52619.31;5025704;28;19928;-69
2024/01/08 07:35:33;;;;;;;;;;;;;;;-144.99;92.30;52660.09;5027263;28;19929;-69
2024/01/08 07:37:59;;;;;;;;;;;;;;;-144.99;91.88;52635.63;5027867;28;19976;-68
2024/01/08 07:40:26;;;;;;;;;;;;;;;-144.99;91.84;52664.16;5024887;28;20522;-70
2024/01/08 07:42:54;;;;;;;;;;;;;;;-144.99;91.53;52639.69;5025454;28;20190;-70
2024/01/08 07:45:20;;;;;;;;;;;;;;;-144.99;91.29;52664.16;5027188;28;20271;-68
2024/01/08 07:47:47;;;;;;;;;;;;;;;-144.99;91.09;52621.34;5027108;28;19968;-70
2024/01/08 07:50:15;;;;;;;;;;;;;;;-144.99;90.72;52645.81;5030370;28;20016;-68
2024/01/08 07:52:42;;;;;;;;;;;;;;;-144.99;90.21;52603.00;4680969;28;9999713;-70
2024/01/08 07:55:09;;;;;;;;;;;;;;;-144.99;89.84;52639.69;5023974;28;20161;-69
2024/01/08 07:57:36;;;;;;;;;;;;;;;-144.99;89.06;52647.84;5026970;28;20068;-70
2024/01/08 08:00:03;;;;;;;;;;;;;;;-144.99;88.50;52607.09;5022512;28;19961;-70
2024/01/08 08:02:29;;;;;;;;;;;;;;;-144.99;87.48;52623.38;5039524;28;19977;-70
2024/01/08 08:04:56;;;;;;;;;;;;;;;-144.99;86.05;52621.34;5029637;28;20397;-68
2024/01/08 08:07:23;;;;;;;;;;;;;;;-144.99;85.36;52627.47;5024156;28;19999;-70
2024/01/08 08:09:50;;;;;;;;;;;;;;;-144.99;85.55;52653.97;5026838;28;19932;-68
2024/01/08 08:12:17;;;;;;;;;;;;;;;-144.99;84.91;52643.78;5026550;28;19928;-70
2024/01/08 08:14:47;;;;;;;;;;;;;;;-144.99;84.80;52645.81;5031761;28;20283;-68
2024/01/08 08:17:13;;;;;;;;;;;;;;;-144.99;83.66;52651.94;5023566;28;19988;-69
2024/01/08 08:19:41;;;;;;;;;;;;;;;-144.99;83.38;52676.38;5029888;28;20420;-70
2024/01/08 08:22:07;;;;;;;;;;;;;;;-144.99;82.89;52623.38;5027424;28;20472;-70
2024/01/08 08:24:37;;;;;;;;;;;;;;;-144.99;82.44;52647.84;5026031;28;19989;-68
2024/01/08 08:27:04;;;;;;;;;;;;;;;-144.99;81.67;52586.69;5024460;28;20374;-69
2024/01/08 08:29:30;;;;;;;;;;;;;;;-144.99;81.50;52609.13;5025200;28;20226;-70
2024/01/08 08:31:57;;;;;;;;;;;;;;;-144.99;80.96;52649.88;5022445;28;20012;-70
2024/01/08 08:34:23;;;;;;;;;;;;;;;-144.99;80.80;52613.19;5019598;28;19929;-70
2024/01/08 08:36:50;;;;;;;;;;;;;;;-144.99;80.68;52613.19;5023423;28;20370;-70
2024/01/08 08:39:16;;;;;;;;;;;;;;;-144.99;80.31;52619.31;5025349;28;19925;-69
2024/01/08 08:41:45;;;;;;;;;;;;;;;-144.99;79.51;52615.25;5025646;28;20341;-70
2024/01/08 08:44:12;;;;;;;;;;;;;;;-144.99;78.52;52672.31;5026127;28;19969;-69
2024/01/08 08:46:39;;;;;;;;;;;;;;;-144.99;77.63;52637.66;5021618;28;20054;-69
2024/01/08 08:49:06;;;;;;;;;;;;;;;-144.99;77.44;52623.38;5023118;28;19967;-69
2024/01/08 08:51:33;;;;;;;;;;;;;;;-144.99;77.46;52623.38;5025760;28;19925;-68
2024/01/08 08:54:03;;;;;;;;;;;;;;;-144.99;77.37;52623.38;5025866;28;19960;-70
2024/01/08 08:56:30;;;;;;;;;;;;;;;-144.99;77.36;52647.84;5026325;28;20253;-70
2024/01/08 08:58:58;;;;;;;;;;;;;;;-144.99;77.27;52656.00;5022984;28;19983;-70
2024/01/08 09:01:24;;;;;;;;;;;;;;;-144.99;76.44;52613.19;5025021;28;20109;-70
2024/01/08 09:03:52;;;;;;;;;;;;;;;-144.99;76.06;52635.63;5026298;28;20243;-70
2024/01/08 09:06:20;;;;;;;;;;;;;;;-144.99;75.97;52668.22;5025548;28;20019;-69
2024/01/08 09:08:46;;;;;;;;;;;;;;;-144.99;75.89;52633.59;5024782;28;19933;-70
2024/01/08 09:11:13;;;;;;;;;;;;;;;-144.99;76.04;52633.59;5024005;28;19976;-70
2024/01/08 09:13:39;;;;;;;;;;;;;;;-144.99;76.38;52643.78;5026610;28;20012;-69
2024/01/08 09:16:10;;;;;;;;;;;;;;;-144.99;76.03;52647.84;5030163;28;19929;-70
2024/01/08 09:18:36;;;;;;;;;;;;;;;-144.99;76.43;52637.66;5027812;28;19949;-70
2024/01/08 09:21:03;;;;;;;;;;;;;;;-144.99;76.25;52662.13;5022950;28;20019;-70
2024/01/08 09:23:29;;;;;;;;;;;;;;;-144.99;76.25;52603.00;5021798;28;20040;-70
2024/01/08 09:25:56;;;;;;;;;;;;;;;-144.99;76.15;52615.25;5024830;28;20365;-70
2024/01/08 09:28:22;;;;;;;;;;;;;;;-144.99;76.33;52611.16;5016664;28;20032;-71
2024/01/08 09:30:50;;;;;;;;;;;;;;;-144.99;76.24;52600.97;5022923;28;20295;-70
2024/01/08 09:33:18;;;;;;;;;;;;;;;-144.99;76.00;52615.25;5016410;28;19937;-70
2024/01/08 09:35:44;;;;;;;;;;;;;;;-144.99;75.62;52639.69;5024088;28;19957;-70
2024/01/08 09:38:11;;;;;;;;;;;;;;;-144.99;75.16;52662.13;5023980;28;20021;-71
2024/01/08 09:40:37;;;;;;;;;;;;;;;-144.99;75.62;52623.38;5023882;28;20011;-70
2024/01/08 09:43:06;;;;;;;;;;;;;;;-144.99;75.40;52596.88;5022033;28;19932;-70
2024/01/08 09:45:32;;;;;;;;;;;;;;;-144.99;73.50;52623.38;5025069;28;19929;-71
2024/01/08 09:47:59;;;;;;;;;;;;;;;-144.99;73.54;52598.94;5022349;28;20164;-69
2024/01/08 09:50:27;;;;;;;;;;;;;;;-144.99;73.27;52603.00;5025328;28;20012;-70
2024/01/08 09:52:54;;;;;;;;;;;;;;;-144.99;72.26;52566.31;5022586;28;19968;-70
2024/01/08 09:55:20;;;;;;;;;;;;;;;-144.99;72.28;52619.31;5023117;28;19929;-70
2024/01/08 09:57:47;;;;;;;;;;;;;;;-144.99;72.15;52611.16;5024559;28;20017;-68
2024/01/08 10:00:14;;;;;;;;;;;;;;;-144.99;72.40;52603.00;5024177;28;20571;-70
2024/01/08 10:02:40;;;;;;;;;;;;;;;-144.99;72.69;52578.53;5023409;28;19929;-70
2024/01/08 10:05:08;;;;;;;;;;;;;;;-144.99;72.87;52560.19;5021485;28;20020;-70
2024/01/08 10:07:36;;;;;;;;;;;;;;;-144.99;71.96;52607.09;5024503;28;20023;-71
2024/01/08 10:10:02;;;;;;;;;;;;;;;-144.99;72.06;52590.78;5024427;28;19940;-71
2024/01/08 10:12:32;;;;;;;;;;;;;;;-144.99;78.88;52623.38;5025411;28;19940;-71
2024/01/08 10:14:59;;;;;;;;;;;;;;;-144.99;73.63;52621.34;5015202;28;20508;-71
2024/01/08 10:17:25;;;;;;;;;;;;;;;-144.99;73.51;52574.47;5032560;28;19929;-70
2024/01/08 10:19:52;;;;;;;;;;;;;;;-144.99;73.08;52598.94;5025261;28;19933;-71
2024/01/08 10:22:18;;;;;;;;;;;;;;;-144.99;73.78;52615.25;5024712;28;19925;-71
2024/01/08 10:24:48;;;;;;;;;;;;;;;-144.99;74.20;52631.53;5024434;28;20270;-70
2024/01/08 10:27:14;;;;;;;;;;;;;;;-144.99;74.52;52607.09;5023324;28;19940;-70
2024/01/08 10:29:41;;;;;;;;;;;;;;;-144.99;74.58;52639.69;5024629;28;19940;-69
2024/01/08 10:32:08;;;;;;;;;;;;;;;-144.99;74.41;52596.88;5024141;28;20018;-70
2024/01/08 10:34:36;;;;;;;;;;;;;;;-144.99;74.51;52594.84;5024431;28;19963;-70
2024/01/08 10:37:02;;;;;;;;;;;;;;;-144.99;74.45;52607.09;5025559;28;19929;-71
2024/01/08 10:39:30;;;;;;;;;;;;;;;-144.99;73.61;52582.63;5027561;28;19929;-69
2024/01/08 10:41:58;;;;;;;;;;;;;;;-144.99;73.23;52611.16;5027283;28;19937;-70
2024/01/08 10:44:25;;;;;;;;;;;;;;;-144.99;73.08;52590.78;5027793;28;20070;-71
2024/01/08 10:46:54;;;;;;;;;;;;;;;-144.99;72.93;52623.38;5025472;28;19925;-70
2024/01/08 10:49:25;;;;;;;;;;;;;;;-144.99;73.18;52594.84;5026101;28;20310;-70
2024/01/08 10:51:53;;;;;;;;;;;;;;;-144.99;73.23;52576.50;5027650;28;19925;-71
2024/01/08 10:54:20;;;;;;;;;;;;;;;-144.99;73.22;52521.47;5027819;28;20048;-71
2024/01/08 10:56:49;;;;;;;;;;;;;;;-144.99;72.44;52474.59;5027945;28;19979;-69
2024/01/08 10:59:22;;;;;;;;;;;;;;;-144.99;70.73;52439.94;5024836;28;19929;-70
2024/01/08 11:01:49;;;;;;;;;;;;;;;-144.99;67.37;52488.84;5027218;28;19933;-69
2024/01/08 11:04:16;;;;;;;;;;;;;;;-144.99;68.28;52550.00;5027628;28;19929;-71
2024/01/08 11:06:43;;;;;;;;;;;;;;;-144.99;68.84;52427.72;5027522;28;20031;-69
2024/01/08 11:09:23;;;;;;;;;;;;;;;-144.99;68.80;52464.41;5025268;28;19948;-72
2024/01/08 11:11:50;;;;;;;;;;;;;;;-144.99;68.71;52529.63;5026663;28;20199;-71
2024/01/08 11:14:18;;;;;;;;;;;;;;;-144.99;67.05;52362.50;5031316;28;20260;-70
2024/01/08 11:16:45;;;;;;;;;;;;;;;-144.99;66.16;52456.25;5036879;28;20006;-72
2024/01/08 11:19:29;;;;;;;;;;;;;;;-144.99;65.58;52488.84;5027093;28;20091;-72
2024/01/08 11:21:56;;;;;;;;;;;;;;;-144.99;65.25;52344.16;5025486;28;20001;-71
2024/01/08 11:24:23;;;;;;;;;;;;;;;-144.99;65.20;52403.25;5026971;28;19933;-72
2024/01/08 11:26:51;;;;;;;;;;;;;;;-144.99;64.87;52497.00;5026051;28;20371;-72
2024/01/08 11:29:20;;;;;;;;;;;;;;;-144.99;66.01;52505.16;5023996;28;19982;-72
2024/01/08 11:32:06;;;;;;;;;;;;;;;-144.99;66.36;52370.63;5024219;28;20123;-72
2024/01/08 11:34:52;;;;;;;;;;;;;;;-144.99;66.07;52433.81;5027412;28;19932;-70
2024/01/08 11:37:33;;;;;;;;;;;;;;;-144.99;66.02;52507.19;5027025;28;19987;-72
2024/01/08 11:40:02;;;;;;;;;;;;;;;-144.99;66.64;52472.56;5021347;28;20040;-72
2024/01/08 11:42:28;;;;;;;;;;;;;;;-144.99;67.06;52541.84;5024530;28;19955;-71
2024/01/08 11:44:57;;;;;;;;;;;;;;;-144.99;67.57;52550.00;5026292;28;20294;-70
2024/01/08 11:47:24;;;;;;;;;;;;;;;-144.99;68.68;52543.91;5017479;28;19929;-72
2024/01/08 11:49:51;;;;;;;;;;;;;;;-144.99;69.02;52554.09;5026518;28;19972;-71
2024/01/08 11:52:17;;;;;;;;;;;;;;;-144.99;70.64;52566.31;5023640;28;19939;-71
2024/01/08 11:54:48;;;;;;;;;;;;;;;-144.99;71.37;52590.78;5024834;28;20521;-72
2024/01/08 11:57:14;;;;;;;;;;;;;;;-144.99;71.88;52572.44;5026642;28;19933;-71
2024/01/08 11:59:41;;;;;;;;;;;;;;;-144.99;72.86;52607.09;5025892;28;20015;-72
2024/01/08 12:02:12;;;;;;;;;;;;;;;-144.99;73.13;52651.94;5026573;28;19925;-71
2024/01/08 12:04:38;;;;;;;;;;;;;;;-144.99;73.62;52635.63;5026749;28;20279;-70
2024/01/08 12:07:05;;;;;;;;;;;;;;;-144.99;74.78;52623.38;5029768;28;19978;-71
2024/01/08 12:09:32;;;;;;;;;;;;;;;-144.99;75.09;52611.16;5049810;28;19972;-70
2024/01/08 12:12:05;;;;;;;;;;;;;;;-144.99;75.31;52651.94;5022734;28;19969;-71
2024/01/08 12:14:32;;;;;;;;;;;;;;;-144.99;75.59;52627.47;5033037;28;19972;-72
2024/01/08 12:16:58;;;;;;;;;;;;;;;-144.99;75.97;52643.78;5019078;28;19925;-70
2024/01/08 12:19:36;;;;;;;;;;;;;;;-144.99;76.59;52635.63;5024709;28;19933;-72
2024/01/08 12:22:02;;;;;;;;;;;;;;;-144.99;76.84;52623.38;5024635;28;19933;-70
2024/01/08 12:24:29;;;;;;;;;;;;;;;-144.99;76.79;52627.47;5025954;28;19956;-71
2024/01/08 12:27:00;;;;;;;;;;;;;;;-144.99;77.14;52680.47;5025199;28;19996;-71